createdAt,value
2018-12-20T00:01:40.588Z,84.90
2018-12-20T00:07:17.826Z,84.60
2018-12-20T00:09:53.930Z,84.20
2018-12-20T00:12:26.727Z,83.50
2018-12-20T00:14:59.424Z,83.10
2018-12-20T00:17:35.869Z,83.10
2018-12-20T00:20:21.523Z,83.80
2018-12-20T00:22:56.145Z,85.30
2018-12-20T00:25:28.472Z,86.60
2018-12-20T00:28:00.454Z,85.80
2018-12-20T00:30:32.385Z,85.80
2018-12-20T00:36:11.809Z,85.50
2018-12-20T00:38:44.512Z,84.70
2018-12-20T00:41:17.112Z,85.00
2018-12-20T00:46:57.900Z,84.80
2018-12-20T00:49:30.499Z,84.50
2018-12-20T00:52:03.347Z,84.50
2018-12-20T00:54:46.670Z,84.20
2018-12-20T00:57:21.016Z,84.60
2018-12-20T00:59:53.409Z,84.50
2018-12-20T01:02:25.399Z,85.10
2018-12-20T01:04:58.227Z,85.90
2018-12-20T01:07:30.867Z,84.70
2018-12-20T01:10:02.285Z,83.70
2018-12-20T01:12:34.573Z,81.90
2018-12-20T01:15:07.550Z,82.50
2018-12-20T01:17:40.236Z,82.70
2018-12-20T01:23:23.331Z,82.60
2018-12-20T01:25:56.124Z,83.90
2018-12-20T01:28:29.144Z,86.40
2018-12-20T01:31:02.212Z,87.40
2018-12-20T01:33:34.878Z,87.80
2018-12-20T01:36:07.518Z,88.30
2018-12-20T01:38:40.043Z,89.70
2018-12-20T01:41:12.909Z,89.90
2018-12-20T01:43:45.042Z,91.10
2018-12-20T01:46:17.837Z,92.00
2018-12-20T01:48:50.289Z,93.50
2018-12-20T01:51:23.084Z,93.90
2018-12-20T01:53:55.928Z,94.00
2018-12-20T01:56:28.035Z,95.00
2018-12-20T01:59:00.722Z,94.50
2018-12-20T02:01:33.679Z,95.20
2018-12-20T02:04:08.041Z,95.70
2018-12-20T02:06:40.266Z,96.10
2018-12-20T02:09:13.163Z,96.80
2018-12-20T02:11:45.038Z,97.10
2018-12-20T02:14:17.836Z,96.70
2018-12-20T02:16:50.632Z,97.40
2018-12-20T02:19:23.513Z,96.50
2018-12-20T02:21:56.333Z,96.80
2018-12-20T02:32:04.642Z,97.60
2018-12-20T02:37:21.583Z,97.70
2018-12-20T02:39:54.103Z,98.10
2018-12-20T02:42:27.230Z,98.00
2018-12-20T02:44:59.706Z,98.30
2018-12-20T02:47:31.732Z,98.40
2018-12-20T02:50:05.036Z,98.30
2018-12-20T02:52:37.609Z,98.80
2018-12-20T02:55:10.348Z,98.60
2018-12-20T02:57:42.991Z,99.20
2018-12-20T03:00:15.863Z,99.50
2018-12-20T03:02:48.736Z,99.90
2018-12-20T03:05:21.645Z,99.90
2018-12-20T03:07:54.519Z,99.90
2018-12-20T03:10:27.028Z,99.90
2018-12-20T03:13:00.243Z,99.90
2018-12-20T03:18:43.368Z,99.90
2018-12-20T03:21:16.253Z,99.90
2018-12-20T03:23:48.996Z,99.90
2018-12-20T03:26:22.026Z,99.90
2018-12-20T03:28:52.552Z,99.90
2018-12-20T03:31:25.353Z,99.90
2018-12-20T03:33:58.292Z,99.90
2018-12-20T03:36:30.811Z,99.90
2018-12-20T03:39:04.752Z,99.90
2018-12-20T03:41:37.475Z,99.90
2018-12-20T03:44:09.486Z,99.90
2018-12-20T03:46:42.215Z,99.90
2018-12-20T03:49:14.975Z,99.90
2018-12-20T03:51:47.568Z,99.90
2018-12-20T03:54:20.521Z,99.90
2018-12-20T03:56:53.637Z,99.90
2018-12-20T03:59:25.921Z,99.90
2018-12-20T04:01:58.595Z,99.90
2018-12-20T04:04:31.936Z,99.90
2018-12-20T04:07:04.409Z,99.90
2018-12-20T04:09:37.258Z,99.90
2018-12-20T04:12:10.028Z,99.90
2018-12-20T04:14:43.101Z,99.90
2018-12-20T04:17:15.191Z,99.90
2018-12-20T04:19:47.748Z,99.90
2018-12-20T04:22:20.557Z,99.90
2018-12-20T04:24:53.343Z,99.90
2018-12-20T04:27:26.066Z,99.90
2018-12-20T04:29:59.109Z,99.90
2018-12-20T04:32:31.756Z,99.90
2018-12-20T04:35:05.527Z,99.90
2018-12-20T04:37:37.967Z,99.90
2018-12-20T04:40:08.758Z,99.90
2018-12-20T04:42:41.577Z,99.90
2018-12-20T04:45:14.701Z,99.90
2018-12-20T04:47:47.186Z,99.90
2018-12-20T04:50:19.021Z,99.90
2018-12-20T04:52:51.767Z,99.90
2018-12-20T04:55:23.730Z,99.90
2018-12-20T04:57:56.288Z,99.90
2018-12-20T05:00:28.828Z,99.90
2018-12-20T05:03:00.812Z,99.90
2018-12-20T05:05:34.002Z,99.90
2018-12-20T05:08:06.474Z,99.90
2018-12-20T05:10:39.245Z,99.90
2018-12-20T05:13:12.096Z,99.90
2018-12-20T05:15:43.280Z,99.90
2018-12-20T05:18:16.112Z,99.90
2018-12-20T05:20:48.348Z,99.90
2018-12-20T05:23:21.074Z,99.90
2018-12-20T05:25:55.855Z,99.90
2018-12-20T05:28:28.109Z,99.90
2018-12-20T05:31:00.071Z,99.90
2018-12-20T05:33:32.935Z,99.90
2018-12-20T05:36:05.824Z,99.90
2018-12-20T05:38:37.830Z,99.90
2018-12-20T05:41:10.699Z,99.90
2018-12-20T05:43:41.354Z,99.90
2018-12-20T05:46:14.069Z,99.90
2018-12-20T05:48:44.689Z,99.90
2018-12-20T05:51:19.853Z,99.90
2018-12-20T05:53:52.497Z,99.90
2018-12-20T05:56:23.473Z,99.90
2018-12-20T05:58:55.910Z,99.90
2018-12-20T06:01:28.648Z,99.90
2018-12-20T06:04:01.306Z,99.90
2018-12-20T06:06:34.198Z,99.90
2018-12-20T06:15:15.065Z,99.90
2018-12-20T06:17:47.057Z,99.90
2018-12-20T06:20:19.717Z,99.90
2018-12-20T06:22:53.114Z,99.90
2018-12-20T06:25:25.860Z,99.90
2018-12-20T06:27:58.721Z,99.90
2018-12-20T06:30:30.618Z,99.90
2018-12-20T06:33:03.453Z,99.90
2018-12-20T06:35:36.103Z,99.90
2018-12-20T06:38:08.894Z,99.90
2018-12-20T06:40:40.788Z,99.90
2018-12-20T06:43:13.534Z,99.90
2018-12-20T06:45:45.801Z,99.90
2018-12-20T06:48:17.654Z,99.90
2018-12-20T06:50:49.633Z,99.90
2018-12-20T06:53:22.288Z,99.90
2018-12-20T06:55:54.601Z,99.90
2018-12-20T06:58:27.394Z,99.90
2018-12-20T07:01:00.129Z,99.90
2018-12-20T07:03:35.189Z,99.90
2018-12-20T07:06:07.677Z,99.90
2018-12-20T07:08:40.326Z,99.90
2018-12-20T07:11:13.118Z,99.90
2018-12-20T07:13:45.134Z,99.90
2018-12-20T07:16:15.869Z,99.90
2018-12-20T07:18:48.804Z,99.90
2018-12-20T07:21:21.398Z,99.90
2018-12-20T07:23:54.139Z,99.90
2018-12-20T07:26:24.894Z,99.90
2018-12-20T07:28:58.244Z,99.90
2018-12-20T07:31:30.796Z,99.90
2018-12-20T07:34:02.825Z,99.90
2018-12-20T07:36:35.594Z,99.90
2018-12-20T07:39:08.839Z,99.90
2018-12-20T07:41:41.375Z,99.90
2018-12-20T07:44:15.469Z,99.90
2018-12-20T07:46:48.043Z,99.90
2018-12-20T07:49:20.114Z,99.90
2018-12-20T07:51:52.809Z,99.90
2018-12-20T07:54:24.810Z,99.90
2018-12-20T07:56:57.381Z,99.90
2018-12-20T07:59:30.107Z,99.90
2018-12-20T08:02:09.000Z,99.90
2018-12-20T08:04:41.764Z,99.90
2018-12-20T08:07:14.469Z,99.90
2018-12-20T08:09:46.348Z,99.90
2018-12-20T08:12:19.116Z,99.90
2018-12-20T08:14:51.029Z,99.90
2018-12-20T08:17:23.664Z,99.90
2018-12-20T08:19:57.344Z,99.90
2018-12-20T08:22:29.268Z,99.90
2018-12-20T08:25:02.112Z,99.90
2018-12-20T08:27:34.589Z,99.90
2018-12-20T08:30:08.164Z,99.90
2018-12-20T08:32:42.622Z,99.90
2018-12-20T08:35:14.947Z,99.90
2018-12-20T08:37:47.637Z,99.90
2018-12-20T08:40:19.649Z,99.90
2018-12-20T08:42:54.790Z,99.90
2018-12-20T08:45:27.162Z,99.90
2018-12-20T08:47:59.865Z,99.90
2018-12-20T08:50:32.517Z,99.90
2018-12-20T08:53:07.430Z,99.90
2018-12-20T08:55:42.197Z,99.90
2018-12-20T08:58:14.855Z,99.90
2018-12-20T09:00:47.535Z,99.90
2018-12-20T09:03:20.257Z,99.90
2018-12-20T09:05:56.792Z,99.90
2018-12-20T09:08:29.653Z,99.90
2018-12-20T09:11:04.079Z,99.90
2018-12-20T09:13:38.989Z,99.90
2018-12-20T09:16:11.220Z,99.90
2018-12-20T09:18:42.024Z,99.90
2018-12-20T09:21:14.198Z,99.90
2018-12-20T09:23:47.052Z,99.90
2018-12-20T09:26:19.529Z,99.90
2018-12-20T09:28:53.284Z,99.90
2018-12-20T09:34:32.077Z,99.90
2018-12-20T09:37:04.136Z,99.90
2018-12-20T09:39:40.430Z,99.90
2018-12-20T09:42:12.515Z,99.80
2018-12-20T09:44:46.785Z,99.50
2018-12-20T09:47:24.488Z,99.30
2018-12-20T09:49:54.802Z,98.80
2018-12-20T09:52:26.709Z,98.90
2018-12-20T09:54:57.212Z,99.10
2018-12-20T09:57:29.822Z,99.10
2018-12-20T10:00:01.708Z,98.90
2018-12-20T10:02:34.425Z,98.70
2018-12-20T10:15:08.607Z,99.10
2018-12-20T10:17:43.274Z,99.40
2018-12-20T10:20:15.855Z,99.60
2018-12-20T10:22:48.530Z,99.80
2018-12-20T10:25:20.512Z,99.90
2018-12-20T10:27:52.411Z,99.90
2018-12-20T10:30:24.240Z,99.90
2018-12-20T10:32:57.032Z,99.90
2018-12-20T10:35:29.972Z,99.90
2018-12-20T10:38:02.787Z,99.90
2018-12-20T10:40:35.460Z,99.90
2018-12-20T10:43:08.173Z,99.90
2018-12-20T10:45:38.878Z,99.90
2018-12-20T10:48:11.687Z,99.90
2018-12-20T10:50:44.470Z,99.90
2018-12-20T10:53:15.202Z,99.90
2018-12-20T10:55:48.114Z,99.90
2018-12-20T10:58:21.510Z,99.90
2018-12-20T11:01:01.310Z,99.90
2018-12-20T11:03:36.724Z,99.90
2018-12-20T11:06:11.407Z,99.90
2018-12-20T11:08:49.560Z,99.90
2018-12-20T11:11:21.870Z,99.90
2018-12-20T11:13:56.862Z,99.90
2018-12-20T11:16:29.521Z,99.90
2018-12-20T11:19:01.531Z,99.90
2018-12-20T11:21:34.209Z,99.90
2018-12-20T11:24:06.127Z,99.90
2018-12-20T11:26:38.817Z,99.90
2018-12-20T11:29:10.815Z,99.90
2018-12-20T11:31:42.745Z,99.90
2018-12-20T11:34:14.682Z,99.90
2018-12-20T11:36:47.512Z,99.90
2018-12-20T11:39:19.941Z,99.90
2018-12-20T11:41:52.613Z,99.90
2018-12-20T11:44:25.547Z,99.90
2018-12-20T11:46:58.307Z,98.10
2018-12-20T11:49:31.081Z,95.80
2018-12-20T11:52:03.759Z,94.60
2018-12-20T11:54:36.545Z,94.80
2018-12-20T11:57:09.136Z,93.10
2018-12-20T11:59:42.106Z,89.60
2018-12-20T12:02:14.573Z,85.60
2018-12-20T12:04:47.200Z,84.90
2018-12-20T12:07:19.940Z,84.00
2018-12-20T12:09:52.603Z,79.50
2018-12-20T12:12:25.273Z,79.00
2018-12-20T12:14:55.953Z,78.80
2018-12-20T12:17:28.799Z,81.80
2018-12-20T12:20:01.528Z,81.90
2018-12-20T12:22:33.420Z,82.40
2018-12-20T12:25:08.412Z,80.90
2018-12-20T12:27:41.126Z,81.70
2018-12-20T12:30:11.912Z,81.20
2018-12-20T12:32:44.681Z,79.60
2018-12-20T12:35:17.457Z,78.70
2018-12-20T12:37:50.336Z,79.60
2018-12-20T12:40:23.044Z,78.40
2018-12-20T12:42:55.920Z,80.80
2018-12-20T12:45:28.705Z,80.30
2018-12-20T12:48:03.707Z,81.10
2018-12-20T12:50:41.105Z,82.30
2018-12-20T12:53:13.239Z,81.80
2018-12-20T12:55:45.932Z,82.80
2018-12-20T12:58:18.877Z,78.80
2018-12-20T13:00:51.289Z,76.20
2018-12-20T13:03:22.910Z,77.70
2018-12-20T13:05:54.904Z,79.00
2018-12-20T13:08:26.910Z,79.20
2018-12-20T13:10:59.587Z,79.80
2018-12-20T13:13:32.419Z,79.70
2018-12-20T13:16:05.092Z,76.60
2018-12-20T13:18:42.885Z,75.40
2018-12-20T13:21:28.008Z,77.10
2018-12-20T13:24:00.675Z,80.60
2018-12-20T13:26:37.250Z,84.10
2018-12-20T13:29:10.302Z,85.30
2018-12-20T13:31:45.042Z,84.90
2018-12-20T13:34:17.745Z,83.60
2018-12-20T13:39:58.051Z,82.80
2018-12-20T13:42:30.651Z,79.70
2018-12-20T13:45:03.835Z,82.00
2018-12-20T13:47:38.575Z,80.00
2018-12-20T13:50:11.138Z,82.40
2018-12-20T13:52:44.232Z,83.90
2018-12-20T13:55:17.119Z,83.40
2018-12-20T13:57:49.718Z,84.90
2018-12-20T14:00:22.345Z,84.00
2018-12-20T14:02:55.103Z,85.40
2018-12-20T14:08:37.188Z,87.10
2018-12-20T14:11:09.370Z,88.90
2018-12-20T14:13:41.942Z,89.60
2018-12-20T14:16:14.780Z,89.50
2018-12-20T14:18:47.632Z,88.50
2018-12-20T14:21:20.642Z,88.20
2018-12-20T14:23:51.522Z,88.70
2018-12-20T14:26:22.177Z,88.80
2018-12-20T14:28:55.215Z,89.50
2018-12-20T14:34:37.077Z,90.60
2018-12-20T14:37:09.394Z,91.40
2018-12-20T14:39:39.937Z,91.50
2018-12-20T14:42:12.527Z,92.20
2018-12-20T14:44:45.205Z,92.60
2018-12-20T14:47:17.249Z,93.00
2018-12-20T14:49:55.703Z,93.00
2018-12-20T14:52:27.920Z,93.00
2018-12-20T14:55:00.922Z,92.90
2018-12-20T14:57:33.417Z,92.70
2018-12-20T15:00:08.537Z,92.30
2018-12-20T15:02:41.012Z,92.50
2018-12-20T15:05:13.594Z,92.60
2018-12-20T15:07:46.514Z,91.80
2018-12-20T15:10:19.203Z,92.90
2018-12-20T15:12:51.230Z,93.40
2018-12-20T15:15:24.044Z,94.00
2018-12-20T15:17:56.938Z,94.70
2018-12-20T15:20:28.895Z,95.40
2018-12-20T15:23:02.914Z,96.70
2018-12-20T15:25:35.679Z,97.00
2018-12-20T15:31:15.233Z,98.40
2018-12-20T15:33:48.037Z,98.30
2018-12-20T15:36:20.806Z,98.90
2018-12-20T15:38:53.279Z,98.00
2018-12-20T15:41:25.153Z,96.70
2018-12-20T15:43:58.155Z,96.50
2018-12-20T15:46:30.807Z,96.30
2018-12-20T15:49:03.865Z,96.00
2018-12-20T15:51:36.854Z,96.10
2018-12-20T15:54:09.838Z,96.40
2018-12-20T15:56:41.774Z,97.00
2018-12-20T15:59:13.627Z,97.20
2018-12-20T16:01:46.379Z,97.00
2018-12-20T16:04:19.162Z,97.80
2018-12-20T16:06:51.992Z,98.90
2018-12-20T16:09:24.507Z,99.40
2018-12-20T16:11:56.367Z,99.90
2018-12-20T16:14:29.206Z,99.90
2018-12-20T16:17:01.864Z,99.90
2018-12-20T16:19:34.584Z,99.90
2018-12-20T16:22:07.540Z,99.90
2018-12-20T16:24:40.098Z,99.90
2018-12-20T16:27:12.871Z,99.90
2018-12-20T16:29:45.708Z,99.90
2018-12-20T16:32:18.410Z,99.90
2018-12-20T16:34:51.367Z,99.90
2018-12-20T16:37:24.243Z,99.90
2018-12-20T16:39:59.407Z,99.90
2018-12-20T16:42:31.659Z,99.90
2018-12-20T16:45:06.001Z,99.90
2018-12-20T16:47:39.068Z,99.90
2018-12-20T16:50:11.201Z,99.90
2018-12-20T16:52:43.803Z,99.90
2018-12-20T16:55:16.608Z,99.60
2018-12-20T16:57:49.211Z,99.40
2018-12-20T17:00:22.116Z,99.20
2018-12-20T17:02:54.735Z,98.60
2018-12-20T17:05:27.611Z,98.90
2018-12-20T17:08:00.398Z,99.50
2018-12-20T17:10:33.264Z,99.90
2018-12-20T17:13:05.907Z,99.90
2018-12-20T17:15:38.716Z,99.90
2018-12-20T17:18:11.421Z,99.90
2018-12-20T17:20:44.424Z,99.90
2018-12-20T17:23:16.889Z,99.90
2018-12-20T17:25:49.841Z,99.90
2018-12-20T17:28:22.597Z,99.90
2018-12-20T17:30:55.391Z,99.90
2018-12-20T17:33:28.173Z,99.90
2018-12-20T17:36:01.046Z,99.90
2018-12-20T17:38:33.846Z,99.90
2018-12-20T17:41:06.638Z,99.90
2018-12-20T17:43:39.502Z,99.90
2018-12-20T17:46:13.005Z,99.90
2018-12-20T17:48:46.257Z,99.90
2018-12-20T17:51:16.797Z,99.90
2018-12-20T17:53:49.693Z,99.90
2018-12-20T17:56:20.578Z,99.90
2018-12-20T17:58:53.138Z,99.90
2018-12-20T18:01:25.794Z,99.90
2018-12-20T18:03:58.695Z,99.90
2018-12-20T18:06:31.676Z,99.90
2018-12-20T18:09:07.711Z,99.90
2018-12-20T18:11:40.022Z,99.90
2018-12-20T18:14:12.638Z,99.90
2018-12-20T18:16:45.377Z,99.90
2018-12-20T18:19:18.917Z,99.90
2018-12-20T18:21:52.451Z,99.90
2018-12-20T18:24:24.805Z,99.90
2018-12-20T18:26:58.804Z,99.90
2018-12-20T18:29:31.342Z,99.90
2018-12-20T18:32:03.754Z,99.90
2018-12-20T18:34:36.683Z,99.90
2018-12-20T18:37:10.073Z,99.90
2018-12-20T18:39:42.263Z,99.90
2018-12-20T18:45:22.915Z,99.90
2018-12-20T18:47:55.749Z,99.90
2018-12-20T18:50:28.971Z,99.90
2018-12-20T18:53:01.366Z,99.90
2018-12-20T18:55:32.612Z,99.90
2018-12-20T18:58:05.566Z,99.90
2018-12-20T19:00:38.129Z,99.90
2018-12-20T19:03:08.664Z,99.90
2018-12-20T19:05:44.568Z,99.90
2018-12-20T19:08:17.461Z,99.90
2018-12-20T19:10:49.997Z,99.90
2018-12-20T19:13:22.996Z,99.90
2018-12-20T19:15:54.019Z,99.90
2018-12-20T19:18:26.636Z,99.90
2018-12-20T19:21:00.033Z,99.90
2018-12-20T19:23:32.476Z,99.90
2018-12-20T19:26:05.199Z,99.90
2018-12-20T19:28:38.186Z,99.90
2018-12-20T19:31:12.001Z,99.90
2018-12-20T19:33:44.869Z,99.90
2018-12-20T19:39:27.409Z,99.90
2018-12-20T19:42:08.407Z,99.90
2018-12-20T19:44:41.339Z,99.90
2018-12-20T19:47:17.773Z,99.90
2018-12-20T19:49:49.926Z,99.90
2018-12-20T19:52:22.539Z,99.90
2018-12-20T19:57:26.673Z,99.90
2018-12-20T19:59:59.447Z,99.90
2018-12-20T20:02:32.314Z,99.90
2018-12-20T20:05:05.200Z,99.90
2018-12-20T20:10:44.189Z,99.90
2018-12-20T20:13:31.242Z,99.90
2018-12-20T20:16:03.982Z,99.90
2018-12-20T20:18:36.740Z,99.90
2018-12-20T20:21:09.907Z,99.90
2018-12-20T20:23:40.447Z,99.90
2018-12-20T20:26:13.382Z,99.90
2018-12-20T20:31:46.698Z,99.90
2018-12-20T20:34:19.395Z,99.90
2018-12-20T20:36:52.355Z,99.90
2018-12-20T20:39:26.392Z,99.90
2018-12-20T20:41:59.317Z,99.90
2018-12-20T20:44:32.057Z,99.90
2018-12-20T20:47:04.857Z,99.90
2018-12-20T20:49:37.549Z,99.90
2018-12-20T20:52:10.297Z,99.90
2018-12-20T20:54:43.917Z,99.90
2018-12-20T20:57:15.950Z,99.90
2018-12-20T20:59:51.258Z,99.90
2018-12-20T21:02:23.510Z,99.90
2018-12-20T21:04:56.378Z,99.90
2018-12-20T21:07:28.660Z,99.90
2018-12-20T21:10:03.329Z,99.90
2018-12-20T21:12:36.270Z,99.90
2018-12-20T21:15:11.630Z,99.90
2018-12-20T21:17:43.894Z,99.90
2018-12-20T21:20:16.005Z,99.90
2018-12-20T21:22:48.934Z,99.90
2018-12-20T21:25:21.502Z,99.90
2018-12-20T21:27:54.130Z,99.90
2018-12-20T21:30:26.259Z,99.90
2018-12-20T21:32:59.101Z,99.90
2018-12-20T21:35:31.704Z,99.90
2018-12-20T21:38:05.156Z,99.90
2018-12-20T21:40:37.123Z,99.90
2018-12-20T21:43:10.972Z,99.90
2018-12-20T21:45:43.618Z,99.90
2018-12-20T21:48:16.400Z,99.90
2018-12-20T21:50:49.014Z,99.90
2018-12-20T21:53:21.908Z,99.90
2018-12-20T21:55:55.390Z,99.90
2018-12-20T21:58:28.415Z,99.90
2018-12-20T22:01:01.229Z,99.90
2018-12-20T22:03:34.818Z,99.90
2018-12-20T22:06:06.923Z,99.90
2018-12-20T22:08:39.175Z,99.90
2018-12-20T22:11:14.963Z,99.90
2018-12-20T22:13:47.847Z,99.90
2018-12-20T22:16:18.527Z,99.90
2018-12-20T22:18:50.475Z,99.90
2018-12-20T22:21:23.227Z,99.90
2018-12-20T22:23:56.002Z,99.90
2018-12-20T22:26:28.607Z,99.90
2018-12-20T22:29:01.530Z,99.90
2018-12-20T22:31:34.052Z,99.90
2018-12-20T22:34:06.951Z,99.90
2018-12-20T22:36:40.090Z,99.90
2018-12-20T22:39:12.451Z,99.90
2018-12-20T22:41:44.897Z,99.90
2018-12-20T22:44:17.704Z,99.90
2018-12-20T22:46:50.598Z,99.90
2018-12-20T22:49:23.289Z,99.90
2018-12-20T22:51:55.940Z,99.90
2018-12-20T22:54:28.068Z,99.90
2018-12-20T22:57:01.038Z,99.90
2018-12-20T22:59:33.862Z,99.90
2018-12-20T23:02:06.667Z,99.90
2018-12-20T23:04:39.364Z,99.90
2018-12-20T23:07:12.080Z,99.90
2018-12-20T23:09:44.664Z,99.90
2018-12-20T23:12:18.045Z,99.90
2018-12-20T23:14:50.477Z,99.90
2018-12-20T23:17:22.591Z,99.90
2018-12-20T23:19:55.337Z,99.90
2018-12-20T23:22:28.601Z,99.90
2018-12-20T23:25:03.229Z,99.90
2018-12-20T23:27:33.456Z,99.90
2018-12-20T23:30:06.702Z,99.90
2018-12-20T23:32:39.394Z,99.90
2018-12-20T23:35:12.091Z,99.90
2018-12-20T23:37:57.823Z,99.90
2018-12-20T23:40:28.751Z,99.90
2018-12-20T23:43:01.546Z,99.90
2018-12-20T23:45:34.482Z,99.90
2018-12-20T23:48:05.262Z,99.90
2018-12-20T23:50:35.983Z,99.90
2018-12-20T23:53:10.371Z,99.90
2018-12-20T23:55:41.030Z,99.90
2018-12-20T23:58:18.667Z,99.90
